OIII/THR METAR and TAF weather

Enter ICAO airport designator
Station Type Date Time Source
OIII METAR 2020/11/27 03:00 UTC NOAA

OIII 270300Z 00000KT 6000 SCT035 SCT100 08/04 Q1018 A3009 NOSIG


Station Type Date Time Source
OIII Decoded METAR 2020/11/27 03:00 UTC NOAA

Tehran-Mehrabad, Iran (OIII) 35-41N 051-21E 1191M
Nov 26, 2020 - 10:00 PM EST / 2020.11.27 0300 UTC
Wind: Calm:0
Visibility: 3 mile(s):0
Sky conditions: partly cloudy
Temperature: 46 F (8 C)
Dew Point: 39 F (4 C)
Relative Humidity: 75%
Pressure (altimeter): 30.09 in. Hg (1018 hPa)
ob: OIII 270300Z 00000KT 6000 SCT035 SCT100 08/04 Q1018 A3009 NOSIG
cycle: 3

Station Type Date Time Source
OIII TAF 2020/11/26 18:21 UTC NOAA

TAF OIII 261750Z 2618/2724 26008KT 3000 BR FEW035CB SCT040 OVC090
TEMPO 2618/2624 1500 RA BR
TEMPO 2700/2704 2000 BR
BECMG 2704/2706 6000 FEW035 SCT100
TEMPO 2709/2715 28018KT FEW035CB SCT040 SCT100

Example: see airport list